createdAt,value
2019-01-02T00:01:10.916Z,94850.63
2019-01-02T00:03:40.416Z,94854.77
2019-01-02T00:06:09.921Z,94857.13
2019-01-02T00:08:39.387Z,94852.78
2019-01-02T00:11:08.938Z,94856.39
2019-01-02T00:13:38.704Z,94854.71
2019-01-02T00:16:08.238Z,94864.07
2019-01-02T00:18:38.152Z,94857.20
2019-01-02T00:21:07.641Z,94850.38
2019-01-02T00:23:37.409Z,94855.70
2019-01-02T00:26:06.954Z,94853.34
2019-01-02T00:28:36.513Z,94859.44
2019-01-02T00:31:06.382Z,94858.83
2019-01-02T00:33:35.851Z,94865.06
2019-01-02T00:36:05.509Z,94854.08
2019-01-02T00:38:35.014Z,94854.89
2019-01-02T00:41:05.014Z,94860.12
2019-01-02T00:43:34.580Z,94850.63
2019-01-02T00:46:04.475Z,94848.39
2019-01-02T00:48:34.025Z,94854.83
2019-01-02T00:51:03.476Z,94855.17
2019-01-02T00:53:32.978Z,94844.40
2019-01-02T00:56:02.464Z,94837.53
2019-01-02T00:58:31.990Z,94832.72
2019-01-02T01:01:13.387Z,94837.06
2019-01-02T01:03:42.875Z,94827.30
2019-01-02T01:06:12.353Z,94826.75
2019-01-02T01:08:41.839Z,94822.67
2019-01-02T01:11:11.902Z,94820.86
2019-01-02T01:13:41.389Z,94818.97
2019-01-02T01:16:10.954Z,94822.53
2019-01-02T01:18:40.498Z,94816.10
2019-01-02T01:21:09.957Z,94819.97
2019-01-02T01:23:40.648Z,94804.92
2019-01-02T01:26:11.280Z,94805.41
2019-01-02T01:28:41.072Z,94797.33
2019-01-02T01:31:10.520Z,94794.96
2019-01-02T01:33:40.035Z,94792.08
2019-01-02T01:36:10.016Z,94786.67
2019-01-02T01:38:40.323Z,94783.97
2019-01-02T01:41:11.639Z,94768.98
2019-01-02T01:43:41.495Z,94764.51
2019-01-02T01:46:11.139Z,94765.72
2019-01-02T01:48:41.119Z,94757.86
2019-01-02T01:51:10.905Z,94753.58
2019-01-02T01:53:40.442Z,94752.16
2019-01-02T01:56:10.446Z,94751.28
2019-01-02T01:58:39.958Z,94750.37
2019-01-02T02:01:09.420Z,94754.02
2019-01-02T02:03:38.895Z,94748.73
2019-01-02T02:06:08.492Z,94748.05
2019-01-02T02:08:38.649Z,94743.45
2019-01-02T02:11:08.166Z,94740.73
2019-01-02T02:13:37.695Z,94736.13
2019-01-02T02:16:07.580Z,94729.99
2019-01-02T02:18:37.094Z,94723.69
2019-01-02T02:21:07.702Z,94719.68
2019-01-02T02:23:37.175Z,94718.13
2019-01-02T02:26:06.676Z,94714.59
2019-01-02T02:28:36.465Z,94712.36
2019-01-02T02:31:06.011Z,94706.95
2019-01-02T02:33:35.642Z,94698.61
2019-01-02T02:36:05.531Z,94699.25
2019-01-02T02:38:35.407Z,94696.39
2019-01-02T02:41:05.267Z,94695.20
2019-01-02T02:43:34.957Z,94698.11
2019-01-02T02:46:04.433Z,94697.86
2019-01-02T02:48:34.264Z,94696.42
2019-01-02T02:51:04.240Z,94692.78
2019-01-02T02:53:34.139Z,94694.36
2019-01-02T02:56:03.973Z,94696.13
2019-01-02T02:58:33.728Z,94690.30
2019-01-02T03:01:03.543Z,94686.34
2019-01-02T03:03:33.340Z,94682.22
2019-01-02T03:06:02.864Z,94674.38
2019-01-02T03:08:32.288Z,94671.45
2019-01-02T03:11:01.747Z,94671.11
2019-01-02T03:13:31.510Z,94667.81
2019-01-02T03:16:01.310Z,94666.10
2019-01-02T03:18:30.984Z,94667.05
2019-01-02T03:21:00.857Z,94670.73
2019-01-02T03:23:30.357Z,94667.68
2019-01-02T03:25:59.839Z,94671.03
2019-01-02T03:28:29.645Z,94675.11
2019-01-02T03:30:59.562Z,94675.11
2019-01-02T03:33:29.345Z,94667.60
2019-01-02T03:35:58.821Z,94672.36
2019-01-02T03:38:28.322Z,94673.17
2019-01-02T03:40:57.818Z,94669.15
2019-01-02T03:43:27.285Z,94666.66
2019-01-02T03:45:56.830Z,94660.30
2019-01-02T03:48:29.972Z,94663.34
2019-01-02T03:50:59.670Z,94658.47
2019-01-02T03:53:29.144Z,94661.09
2019-01-02T03:55:58.697Z,94656.45
2019-01-02T03:58:28.226Z,94656.76
2019-01-02T04:00:57.736Z,94647.27
2019-01-02T04:03:27.200Z,94644.65
2019-01-02T04:05:59.000Z,94638.73
2019-01-02T04:08:28.976Z,94634.27
2019-01-02T04:10:58.449Z,94637.14
2019-01-02T04:13:27.964Z,94637.40
2019-01-02T04:15:57.535Z,94630.23
2019-01-02T04:18:27.074Z,94623.84
2019-01-02T04:20:56.593Z,94619.59
2019-01-02T04:23:26.176Z,94613.63
2019-01-02T04:25:55.669Z,94619.26
2019-01-02T04:28:25.179Z,94614.58
2019-01-02T04:30:54.650Z,94621.36
2019-01-02T04:33:24.152Z,94616.73
2019-01-02T04:35:53.663Z,94615.78
2019-01-02T04:38:23.117Z,94614.84
2019-01-02T04:40:52.545Z,94607.33
2019-01-02T04:43:22.069Z,94608.27
2019-01-02T04:45:51.507Z,94607.34
2019-01-02T04:48:29.950Z,94605.62
2019-01-02T04:51:00.115Z,94612.52
2019-01-02T04:53:29.553Z,94608.86
2019-01-02T04:55:59.081Z,94611.44
2019-01-02T04:58:28.544Z,94602.98
2019-01-02T05:00:58.087Z,94617.54
2019-01-02T05:03:27.608Z,94616.59
2019-01-02T05:05:57.126Z,94621.95
2019-01-02T05:08:26.603Z,94616.86
2019-01-02T05:10:56.130Z,94628.39
2019-01-02T05:13:25.594Z,94624.74
2019-01-02T05:15:55.198Z,94620.25
2019-01-02T05:18:24.695Z,94617.76
2019-01-02T05:20:54.132Z,94612.05
2019-01-02T05:23:23.641Z,94606.63
2019-01-02T05:25:53.098Z,94606.95
2019-01-02T05:28:22.553Z,94608.52
2019-01-02T05:30:51.999Z,94604.64
2019-01-02T05:33:21.455Z,94605.27
2019-01-02T05:35:50.959Z,94596.53
2019-01-02T05:38:20.472Z,94591.30
2019-01-02T05:40:51.302Z,94601.08
2019-01-02T05:43:20.803Z,94588.23
2019-01-02T05:45:50.336Z,94590.00
2019-01-02T05:48:19.866Z,94579.77
2019-01-02T05:50:49.392Z,94587.78
2019-01-02T05:53:18.865Z,94580.06
2019-01-02T05:55:48.296Z,94586.88
2019-01-02T05:58:17.833Z,94577.66
2019-01-02T06:00:47.297Z,94571.05
2019-01-02T06:03:16.767Z,94578.67
2019-01-02T06:05:46.744Z,94568.37
2019-01-02T06:08:16.253Z,94559.14
2019-01-02T06:10:45.664Z,94556.30
2019-01-02T06:13:15.172Z,94554.73
2019-01-02T06:15:44.895Z,94550.20
2019-01-02T06:18:14.346Z,94550.23
2019-01-02T06:20:43.807Z,94547.62
2019-01-02T06:23:13.324Z,94546.70
2019-01-02T06:25:42.797Z,94566.39
2019-01-02T06:28:13.335Z,94568.41
2019-01-02T06:30:42.867Z,94562.79
2019-01-02T06:33:12.389Z,94557.84
2019-01-02T06:35:41.899Z,94554.66
2019-01-02T06:38:11.495Z,94567.52
2019-01-02T06:40:41.049Z,94579.45
2019-01-02T06:43:10.549Z,94580.55
2019-01-02T06:45:40.055Z,94590.00
2019-01-02T06:48:09.579Z,94590.64
2019-01-02T06:50:39.097Z,94588.02
2019-01-02T06:53:08.627Z,94591.22
2019-01-02T06:55:38.221Z,94604.45
2019-01-02T06:58:07.754Z,94598.29
2019-01-02T07:00:41.993Z,94602.87
2019-01-02T07:03:11.489Z,94611.47
2019-01-02T07:05:41.021Z,94622.66
2019-01-02T07:08:10.542Z,94613.03
2019-01-02T07:10:40.007Z,94618.88
2019-01-02T07:13:09.491Z,94619.14
2019-01-02T07:15:39.029Z,94626.84
2019-01-02T07:18:08.535Z,94623.75
2019-01-02T07:20:38.074Z,94619.11
2019-01-02T07:23:07.639Z,94613.41
2019-01-02T07:25:37.099Z,94611.01
2019-01-02T07:28:06.617Z,94622.00
2019-01-02T07:30:36.269Z,94623.48
2019-01-02T07:33:05.833Z,94619.72
2019-01-02T07:36:13.012Z,94623.11
2019-01-02T07:39:22.379Z,94614.50
2019-01-02T07:42:41.880Z,94619.95
2019-01-02T07:45:44.765Z,94611.56
2019-01-02T07:48:57.899Z,94597.05
2019-01-02T07:52:02.042Z,94605.61
2019-01-02T07:55:14.525Z,94606.85
2019-01-02T07:58:33.232Z,94599.50
2019-01-02T08:01:46.664Z,94590.45
2019-01-02T08:04:45.395Z,94594.48
2019-01-02T08:07:47.032Z,94589.02
2019-01-02T08:11:06.758Z,94582.11
2019-01-02T08:14:19.187Z,94584.27
2019-01-02T08:17:26.745Z,94585.30
2019-01-02T08:20:43.022Z,94572.48
2019-01-02T08:23:46.022Z,94571.91
2019-01-02T08:27:00.890Z,94567.77
2019-01-02T08:29:50.249Z,94571.58
2019-01-02T08:33:00.555Z,94577.64
2019-01-02T08:35:55.229Z,94576.94
2019-01-02T08:38:48.670Z,94573.90
2019-01-02T08:41:59.051Z,94563.66
2019-01-02T08:44:57.855Z,94558.17
2019-01-02T08:48:20.894Z,94556.16
2019-01-02T08:51:26.081Z,94549.28
2019-01-02T08:54:36.971Z,94537.95
2019-01-02T08:57:56.318Z,94537.89
2019-01-02T09:01:12.872Z,94536.97
2019-01-02T09:04:20.868Z,94544.77
2019-01-02T09:07:08.159Z,94540.70
2019-01-02T09:10:17.801Z,94530.70
2019-01-02T09:13:19.936Z,94529.93
2019-01-02T09:16:29.546Z,94522.02
2019-01-02T09:19:25.608Z,94510.84
2019-01-02T09:22:31.086Z,94505.02
2019-01-02T09:25:39.834Z,94495.30
2019-01-02T09:28:48.756Z,94481.02
2019-01-02T09:31:42.887Z,94469.14
2019-01-02T09:35:08.162Z,94474.16
2019-01-02T09:38:29.047Z,94479.97
2019-01-02T09:41:40.397Z,94480.48
2019-01-02T09:44:46.289Z,94486.81
2019-01-02T09:47:47.211Z,94468.28
2019-01-02T09:50:48.945Z,94471.52
2019-01-02T09:54:08.876Z,94458.75
2019-01-02T09:57:16.011Z,94458.42
2019-01-02T10:00:19.219Z,94449.05
2019-01-02T10:03:29.368Z,94445.95
2019-01-02T10:06:53.468Z,94437.64
2019-01-02T10:09:59.834Z,94438.86
2019-01-02T10:13:15.801Z,94423.13
2019-01-02T10:16:17.024Z,94416.49
2019-01-02T10:19:45.758Z,94413.89
2019-01-02T10:22:48.239Z,94412.43
2019-01-02T10:25:55.462Z,94413.20
2019-01-02T10:29:15.279Z,94416.32
2019-01-02T10:32:25.804Z,94422.81
2019-01-02T10:35:34.433Z,94408.70
2019-01-02T10:38:32.210Z,94405.25
2019-01-02T10:41:45.104Z,94405.73
2019-01-02T10:44:50.330Z,94410.80
2019-01-02T10:48:06.898Z,94405.23
2019-01-02T10:51:38.521Z,94400.09
2019-01-02T10:54:41.654Z,94397.20
2019-01-02T10:57:42.900Z,94384.77
2019-01-02T11:00:56.681Z,94381.72
2019-01-02T11:04:05.671Z,94377.67
2019-01-02T11:07:08.982Z,94383.37
2019-01-02T11:10:33.770Z,94378.67
2019-01-02T11:13:41.115Z,94389.07
2019-01-02T11:16:50.169Z,94378.67
2019-01-02T11:20:03.738Z,94383.24
2019-01-02T11:23:14.321Z,94383.27
2019-01-02T11:26:25.990Z,94386.02
2019-01-02T11:29:36.704Z,94393.28
2019-01-02T11:32:51.769Z,94389.05
2019-01-02T11:36:02.104Z,94383.73
2019-01-02T11:38:56.567Z,94374.20
2019-01-02T11:41:54.581Z,94383.86
2019-01-02T11:44:57.298Z,94373.98
2019-01-02T11:47:26.861Z,94375.77
2019-01-02T11:49:56.316Z,94363.13
2019-01-02T11:52:25.801Z,94353.02
2019-01-02T11:54:55.559Z,94347.02
2019-01-02T11:57:25.038Z,94338.52
2019-01-02T11:59:54.538Z,94346.29
2019-01-02T12:02:24.019Z,94354.06
2019-01-02T12:04:53.483Z,94336.69
2019-01-02T12:07:22.996Z,94336.53
2019-01-02T12:09:52.519Z,94335.80
2019-01-02T12:12:23.144Z,94349.40
2019-01-02T12:14:52.753Z,94340.52
2019-01-02T12:17:22.216Z,94335.02
2019-01-02T12:19:51.750Z,94330.26
2019-01-02T12:22:21.291Z,94330.91
2019-01-02T12:24:50.777Z,94325.31
2019-01-02T12:27:20.720Z,94325.88
2019-01-02T12:29:50.204Z,94329.61
2019-01-02T12:32:19.678Z,94333.25
2019-01-02T12:34:49.141Z,94325.31
2019-01-02T12:37:18.666Z,94328.67
2019-01-02T12:39:48.392Z,94318.90
2019-01-02T12:42:17.852Z,94314.02
2019-01-02T12:44:47.374Z,94321.47
2019-01-02T12:47:16.835Z,94316.00
2019-01-02T12:49:46.329Z,94325.27
2019-01-02T12:52:16.003Z,94321.45
2019-01-02T12:54:45.485Z,94320.86
2019-01-02T12:57:14.926Z,94322.98
2019-01-02T12:59:44.500Z,94319.77
2019-01-02T13:03:05.441Z,94329.61
2019-01-02T13:06:11.676Z,94323.14
2019-01-02T13:09:30.056Z,94329.89
2019-01-02T13:12:40.799Z,94322.58
2019-01-02T13:15:37.683Z,94323.07
2019-01-02T13:18:56.286Z,94326.31
2019-01-02T13:21:42.149Z,94327.41
2019-01-02T13:24:46.740Z,94327.89
2019-01-02T13:28:04.216Z,94336.16
2019-01-02T13:31:17.594Z,94323.52
2019-01-02T13:34:10.236Z,94332.75
2019-01-02T13:37:10.987Z,94338.28
2019-01-02T13:40:27.152Z,94344.11
2019-01-02T13:43:19.856Z,94344.65
2019-01-02T13:46:00.224Z,94356.16
2019-01-02T13:49:09.854Z,94354.88
2019-01-02T13:51:42.882Z,94358.13
2019-01-02T13:54:12.325Z,94366.86
2019-01-02T13:56:41.793Z,94369.44
2019-01-02T13:59:11.278Z,94384.15
2019-01-02T14:01:40.697Z,94381.08
2019-01-02T14:04:13.216Z,94380.28
2019-01-02T14:06:42.717Z,94372.83
2019-01-02T14:09:12.164Z,94384.14
2019-01-02T14:11:41.661Z,94389.95
2019-01-02T14:14:11.232Z,94389.97
2019-01-02T14:16:40.742Z,94393.99
2019-01-02T14:19:10.574Z,94387.35
2019-01-02T14:21:40.076Z,94388.30
2019-01-02T14:24:10.991Z,94397.05
2019-01-02T14:26:40.593Z,94399.46
2019-01-02T14:29:10.228Z,94404.61
2019-01-02T14:31:39.821Z,94412.98
2019-01-02T14:34:09.363Z,94409.44
2019-01-02T14:36:38.863Z,94426.54
2019-01-02T14:39:08.886Z,94418.88
2019-01-02T14:41:38.397Z,94426.94
2019-01-02T14:44:07.976Z,94417.41
2019-01-02T14:46:37.491Z,94416.09
2019-01-02T14:49:07.001Z,94419.30
2019-01-02T14:51:36.459Z,94424.44
2019-01-02T14:54:06.895Z,94423.47
2019-01-02T14:56:36.374Z,94441.48
2019-01-02T14:59:05.872Z,94428.90
2019-01-02T15:01:35.334Z,94439.67
2019-01-02T15:04:04.986Z,94441.91
2019-01-02T15:06:34.596Z,94448.84
2019-01-02T15:09:05.541Z,94446.55
2019-01-02T15:11:35.125Z,94448.76
2019-01-02T15:14:04.620Z,94452.63
2019-01-02T15:16:34.225Z,94443.06
2019-01-02T15:19:03.851Z,94461.13
2019-01-02T15:21:34.564Z,94463.85
2019-01-02T15:24:04.241Z,94459.27
2019-01-02T15:26:39.129Z,94458.45
2019-01-02T15:29:08.634Z,94459.89
2019-01-02T15:31:38.162Z,94461.11
2019-01-02T15:34:07.666Z,94462.97
2019-01-02T15:36:37.325Z,94467.98
2019-01-02T15:39:08.529Z,94453.78
2019-01-02T15:41:38.081Z,94465.06
2019-01-02T15:44:10.067Z,94462.01
2019-01-02T15:46:39.616Z,94461.14
2019-01-02T15:49:09.293Z,94467.11
2019-01-02T15:51:38.788Z,94469.83
2019-01-02T15:54:08.292Z,94471.27
2019-01-02T15:56:37.911Z,94470.45
2019-01-02T15:59:07.318Z,94471.05
2019-01-02T16:01:36.895Z,94470.36
2019-01-02T16:04:06.431Z,94464.94
2019-01-02T16:06:36.339Z,94476.69
2019-01-02T16:09:08.354Z,94474.58
2019-01-02T16:11:38.389Z,94472.81
2019-01-02T16:14:08.009Z,94474.56
2019-01-02T16:16:37.498Z,94475.87
2019-01-02T16:19:07.080Z,94476.02
2019-01-02T16:21:36.690Z,94483.86
2019-01-02T16:24:06.441Z,94469.56
2019-01-02T16:26:36.047Z,94475.03
2019-01-02T16:29:06.112Z,94478.11
2019-01-02T16:31:35.655Z,94475.25
2019-01-02T16:34:07.702Z,94474.49
2019-01-02T16:36:37.289Z,94480.39
2019-01-02T16:39:12.972Z,94475.05
2019-01-02T16:41:42.545Z,94474.42
2019-01-02T16:44:12.121Z,94482.25
2019-01-02T16:46:41.776Z,94479.72
2019-01-02T16:49:14.168Z,94478.91
2019-01-02T16:51:44.304Z,94483.78
2019-01-02T16:54:14.861Z,94478.94
2019-01-02T16:56:44.423Z,94480.15
2019-01-02T16:59:14.566Z,94479.73
2019-01-02T17:01:44.829Z,94490.71
2019-01-02T17:04:14.481Z,94481.68
2019-01-02T17:06:43.955Z,94482.08
2019-01-02T17:09:14.267Z,94484.47
2019-01-02T17:11:44.130Z,94480.61
2019-01-02T17:14:14.382Z,94481.55
2019-01-02T17:16:45.440Z,94474.37
2019-01-02T17:19:16.851Z,94486.17
2019-01-02T17:21:46.463Z,94486.91
2019-01-02T17:24:16.058Z,94473.39
2019-01-02T17:26:45.731Z,94492.80
2019-01-02T17:29:15.349Z,94487.32
2019-01-02T17:31:51.328Z,94489.55
2019-01-02T17:34:22.436Z,94493.38
2019-01-02T17:36:51.995Z,94487.05
2019-01-02T17:39:23.370Z,94503.05
2019-01-02T17:41:53.135Z,94491.75
2019-01-02T17:44:27.752Z,94488.20
2019-01-02T17:46:58.269Z,94488.47
2019-01-02T17:49:28.278Z,94489.75
2019-01-02T17:51:57.937Z,94487.17
2019-01-02T17:54:27.666Z,94484.95
2019-01-02T17:56:57.222Z,94485.91
2019-01-02T17:59:26.838Z,94477.88
2019-01-02T18:01:56.321Z,94484.19
2019-01-02T18:04:25.941Z,94483.84
2019-01-02T18:06:56.785Z,94488.22
2019-01-02T18:09:26.349Z,94487.26
2019-01-02T18:11:57.658Z,94491.66
2019-01-02T18:14:27.357Z,94490.77
2019-01-02T18:16:57.497Z,94495.83
2019-01-02T18:19:27.166Z,94483.41
2019-01-02T18:21:58.592Z,94491.25
2019-01-02T18:24:29.324Z,94494.83
2019-01-02T18:26:58.983Z,94496.17
2019-01-02T18:29:28.975Z,94487.23
2019-01-02T18:31:58.476Z,94501.91
2019-01-02T18:34:27.976Z,94503.58
2019-01-02T18:36:57.704Z,94509.23
2019-01-02T18:39:27.330Z,94507.17
2019-01-02T18:41:56.859Z,94502.05
2019-01-02T18:44:26.347Z,94502.55
2019-01-02T18:46:55.773Z,94503.40
2019-01-02T18:49:25.276Z,94500.02
2019-01-02T18:51:54.709Z,94503.02
2019-01-02T18:54:24.265Z,94507.55
2019-01-02T18:56:53.822Z,94504.55
2019-01-02T18:59:23.855Z,94511.27
2019-01-02T19:01:53.813Z,94510.03
2019-01-02T19:04:23.317Z,94508.03
2019-01-02T19:06:52.905Z,94503.24
2019-01-02T19:09:22.449Z,94512.23
2019-01-02T19:11:52.148Z,94517.25
2019-01-02T19:14:21.679Z,94515.86
2019-01-02T19:16:51.208Z,94517.62
2019-01-02T19:19:20.731Z,94512.61
2019-01-02T19:21:50.225Z,94507.30
2019-01-02T19:24:19.774Z,94516.85
2019-01-02T19:26:49.249Z,94513.65
2019-01-02T19:29:18.989Z,94499.94
2019-01-02T19:31:48.563Z,94512.31
2019-01-02T19:34:18.050Z,94512.55
2019-01-02T19:36:47.663Z,94514.39
2019-01-02T19:39:17.343Z,94513.81
2019-01-02T19:41:46.878Z,94510.23
2019-01-02T19:44:16.410Z,94514.11
2019-01-02T19:46:45.942Z,94511.95
2019-01-02T19:49:15.474Z,94516.77
2019-01-02T19:51:45.112Z,94513.13
2019-01-02T19:54:14.606Z,94512.88
2019-01-02T19:56:44.082Z,94508.70
2019-01-02T19:59:13.619Z,94506.30
2019-01-02T20:01:43.058Z,94514.32
2019-01-02T20:04:12.541Z,94512.84
2019-01-02T20:06:42.074Z,94519.34
2019-01-02T20:09:11.601Z,94513.57
2019-01-02T20:11:41.096Z,94506.02
2019-01-02T20:14:10.851Z,94508.27
2019-01-02T20:16:40.369Z,94506.70
2019-01-02T20:19:09.871Z,94503.26
2019-01-02T20:21:39.337Z,94501.27
2019-01-02T20:24:11.885Z,94502.24
2019-01-02T20:26:55.551Z,94505.63
2019-01-02T20:29:25.216Z,94502.04
2019-01-02T20:31:54.775Z,94504.36
2019-01-02T20:34:24.282Z,94498.52
2019-01-02T20:36:53.786Z,94503.48
2019-01-02T20:39:23.255Z,94495.94
2019-01-02T20:41:52.778Z,94493.04
2019-01-02T20:44:22.423Z,94493.04
2019-01-02T20:46:51.926Z,94488.81
2019-01-02T20:49:21.404Z,94494.27
2019-01-02T20:51:50.885Z,94489.10
2019-01-02T20:54:20.474Z,94486.91
2019-01-02T20:56:50.020Z,94486.59
2019-01-02T20:59:19.539Z,94486.42
2019-01-02T21:01:49.007Z,94480.23
2019-01-02T21:04:18.556Z,94472.16
2019-01-02T21:06:49.597Z,94478.23
2019-01-02T21:09:19.137Z,94473.69
2019-01-02T21:11:48.622Z,94473.55
2019-01-02T21:14:18.765Z,94477.89
2019-01-02T21:16:48.257Z,94474.81
2019-01-02T21:19:17.796Z,94476.88
2019-01-02T21:21:55.643Z,94475.30
2019-01-02T21:24:42.660Z,94472.88
2019-01-02T21:27:12.181Z,94472.72
2019-01-02T21:29:41.728Z,94472.31
2019-01-02T21:32:13.859Z,94472.72
2019-01-02T21:34:43.407Z,94469.09
2019-01-02T21:37:12.939Z,94477.46
2019-01-02T21:39:42.452Z,94476.98
2019-01-02T21:42:11.952Z,94474.06
2019-01-02T21:44:45.268Z,94476.60
2019-01-02T21:47:14.808Z,94480.58
2019-01-02T21:49:44.341Z,94481.53
2019-01-02T21:52:13.804Z,94476.80
2019-01-02T21:54:46.915Z,94477.08
2019-01-02T21:57:16.476Z,94478.56
2019-01-02T21:59:45.991Z,94473.05
2019-01-02T22:02:23.243Z,94475.23
2019-01-02T22:04:55.332Z,94467.72
2019-01-02T22:07:24.797Z,94473.84
2019-01-02T22:09:54.243Z,94480.30
2019-01-02T22:12:27.753Z,94477.89
2019-01-02T22:14:57.274Z,94478.50
2019-01-02T22:17:26.797Z,94480.96
2019-01-02T22:19:56.268Z,94476.54
2019-01-02T22:22:25.767Z,94474.26
2019-01-02T22:24:55.277Z,94478.81
2019-01-02T22:27:24.760Z,94476.70
2019-01-02T22:29:54.200Z,94487.13
2019-01-02T22:32:23.770Z,94484.46
2019-01-02T22:34:53.257Z,94489.16
2019-01-02T22:37:22.734Z,94484.71
2019-01-02T22:39:52.267Z,94488.39
2019-01-02T22:42:21.817Z,94490.30
2019-01-02T22:44:51.318Z,94490.36
2019-01-02T22:47:20.786Z,94487.86
2019-01-02T22:49:50.300Z,94495.02
2019-01-02T22:52:20.372Z,94489.36
2019-01-02T22:54:49.883Z,94492.55
2019-01-02T22:57:19.369Z,94493.38
2019-01-02T22:59:48.875Z,94493.38
2019-01-02T23:02:33.421Z,94492.09
2019-01-02T23:05:21.878Z,94489.28
2019-01-02T23:08:16.385Z,94490.71
2019-01-02T23:11:10.785Z,94485.61
2019-01-02T23:14:03.701Z,94492.31
2019-01-02T23:17:01.151Z,94491.69
2019-01-02T23:19:48.331Z,94487.95
2019-01-02T23:22:38.547Z,94480.58
2019-01-02T23:25:30.051Z,94482.97
2019-01-02T23:28:18.488Z,94487.72
2019-01-02T23:31:05.297Z,94479.77
2019-01-02T23:33:54.802Z,94480.14
2019-01-02T23:36:41.830Z,94483.49
2019-01-02T23:39:23.902Z,94481.16
2019-01-02T23:42:11.317Z,94472.03
2019-01-02T23:45:18.185Z,94473.91
2019-01-02T23:48:06.494Z,94480.10
2019-01-02T23:51:00.693Z,94476.42
2019-01-02T23:53:47.721Z,94481.91
2019-01-02T23:56:42.082Z,94480.02
2019-01-02T23:59:33.538Z,94483.27
